Bulk Poland — 9V2143 — position and weather

sailwx.info

Track history (hours):
 
Tides and Currents Weather Stations Pressure Air Temp Water Temp Dewpoint Dewpoint Depression Visibility Wind Speed Wind Dir Waves Ship Positions

Bulk Poland

Last reported at 2017-Nov-15 19:36 UTC. Time now 2017-Nov-18 21:46 UTC.
Position N 01°21' E 103°18'.

Length 227 m; draft 6.7 m.

Type: Cargo ship. MMSI: 564204000.

Date/timePositionNaut miles runAvg speedWind from/ knotsBaromVisibWave heightAir tempDewpointWater temp
2017-Nov-15 19:36N 01°21' E 103°18'314.4
2017-Nov-15 19:24N 01°19' E 103°21'614.6
2017-Nov-15 19:00N 01°15' E 103°25'714.0
2017-Nov-15 18:30N 01°13' E 103°31'713.5
2017-Nov-15 18:00N 01°11' E 103°38'612.2
2017-Nov-15 17:30N 01°09' E 103°43'510.5
2017-Nov-15 17:00N 01°10' E 103°48'612.3
2017-Nov-15 16:30N 01°13' E 103°54'4 8.2
2017-Nov-15 16:00N 01°15' E 103°58'2 0.5
2017-Nov-15 11:40N 01°17' E 103°58'0 0.0
2017-Nov-15 11:26N 01°17' E 103°58'0 0.1
2017-Nov-15 09:55N 01°17' E 103°58'0 0.2
2017-Nov-15 09:01N 01°17' E 103°58'0 0.0
2017-Nov-15 08:52N 01°17' E 103°58'0 0.1
2017-Nov-15 08:07N 01°17' E 103°58'0 0.0
2017-Nov-15 07:58N 01°17' E 103°58'0 0.0
2017-Nov-15 07:16N 01°17' E 103°58'0 0.0
2017-Nov-15 06:25N 01°17' E 103°58'0 0.0
2017-Nov-15 05:52N 01°17' E 103°58'0 0.0
2017-Nov-15 04:16N 01°17' E 103°58'0 0.0
2017-Nov-15 03:40N 01°17' E 103°58'0 0.3
2017-Nov-15 03:28N 01°17' E 103°58'0 0.1
2017-Nov-15 01:13N 01°17' E 103°58'0 0.0
2017-Nov-15 00:55N 01°17' E 103°58'0 0.1
2017-Nov-15 00:29N 01°17' E 103°58'1 0.7
2017-Nov-14 23:42N 01°17' E 103°58'1 6.3
2017-Nov-14 23:30N 01°16' E 103°58'2 3.1
2017-Nov-14 23:00N 01°16' E 103°60'2 5.0
2017-Nov-14 22:30N 01°16' E 104°02'3 5.3
2017-Nov-14 21:55N 01°16' E 104°05'4 5.0
2017-Nov-14 21:07N 01°17' E 104°09'  
Track history (hours):
 
Tides and Currents Weather Stations Pressure Air Temp Water Temp Dewpoint Dewpoint Depression Visibility Wind Speed Wind Dir Waves Ship Positions

Bulk Poland

Last reported at 2017-Nov-15 19:36 UTC. Time now 2017-Nov-18 21:46 UTC.
Position N 01°21' E 103°18'.

Length 227 m; draft 6.7 m.

Type: Cargo ship. MMSI: 564204000.

Date/timePositionNaut miles runAvg speedWind from/ knotsBaromVisibWave heightAir tempDewpointWater temp
2017-Nov-15 19:36N 01°21' E 103°18'314.4
2017-Nov-15 19:24N 01°19' E 103°21'614.6
2017-Nov-15 19:00N 01°15' E 103°25'714.0
2017-Nov-15 18:30N 01°13' E 103°31'713.5
2017-Nov-15 18:00N 01°11' E 103°38'612.2
2017-Nov-15 17:30N 01°09' E 103°43'510.5
2017-Nov-15 17:00N 01°10' E 103°48'612.3
2017-Nov-15 16:30N 01°13' E 103°54'4 8.2
2017-Nov-15 16:00N 01°15' E 103°58'2 0.5
2017-Nov-15 11:40N 01°17' E 103°58'0 0.0
2017-Nov-15 11:26N 01°17' E 103°58'0 0.1
2017-Nov-15 09:55N 01°17' E 103°58'0 0.2
2017-Nov-15 09:01N 01°17' E 103°58'0 0.0
2017-Nov-15 08:52N 01°17' E 103°58'0 0.1
2017-Nov-15 08:07N 01°17' E 103°58'0 0.0
2017-Nov-15 07:58N 01°17' E 103°58'0 0.0
2017-Nov-15 07:16N 01°17' E 103°58'0 0.0
2017-Nov-15 06:25N 01°17' E 103°58'0 0.0
2017-Nov-15 05:52N 01°17' E 103°58'0 0.0
2017-Nov-15 04:16N 01°17' E 103°58'0 0.0
2017-Nov-15 03:40N 01°17' E 103°58'0 0.3
2017-Nov-15 03:28N 01°17' E 103°58'0 0.1
2017-Nov-15 01:13N 01°17' E 103°58'0 0.0
2017-Nov-15 00:55N 01°17' E 103°58'0 0.1
2017-Nov-15 00:29N 01°17' E 103°58'1 0.7
2017-Nov-14 23:42N 01°17' E 103°58'1 6.3
2017-Nov-14 23:30N 01°16' E 103°58'2 3.1
2017-Nov-14 23:00N 01°16' E 103°60'2 5.0
2017-Nov-14 22:30N 01°16' E 104°02'3 5.3
2017-Nov-14 21:55N 01°16' E 104°05'4 5.0
2017-Nov-14 21:07N 01°17' E 104°09'  

Dump ship's entire track history